< < Back
Terminal Aerodrome Forecast


Current Version              Previous Versions:   1  2  3  4  5  6  7  8  9  

Terminal Aerodrome Forecast

040
FTUS44 KMRX 011123
TAFTYS
TAF
KTYS 011123Z 0112/0212 03004KT P6SM SCT050
     FM020300 00000KT P6SM SCT150=

Latest METAR

102
SAUS80 KWBC 021000 RRA
MTRTYS
METAR KTYS 020953Z 00000KT 10SM BKN100 21/21 A3011 RMK AO2 SLP184
T02060206 $


USA.gov is the U.S. government's official web portal to all federal, state and local government web resources and services.